Time;durP1;ratioP1;P1;durP2;ratioP2;P2;SDS_P1;SDS_P2;PMS_P1;PMS_P2;Temp;Humidity;BMP_temperature;BMP_pressure;BME280_temperature;BME280_humidity;BME280_pressure;Samples;Min_cycle;Max_cycle;Signal;HPM_P1;HPM_P2
2023/03/31 00:01:40;;;;;;;18.55;8.52;;;;;;;7.19;100.00;92536.19;5111206;28;20055;-79
2023/03/31 00:04:11;;;;;;;27.05;8.73;;;;;;;7.20;100.00;92526.56;5115470;28;20037;-79
2023/03/31 00:06:43;;;;;;;23.05;8.57;;;;;;;7.23;100.00;92531.25;5106610;28;20063;-79
2023/03/31 00:09:14;;;;;;;22.83;8.32;;;;;;;7.19;100.00;92523.19;5114748;28;20034;-79
2023/03/31 00:11:40;;;;;;;19.97;8.03;;;;;;;7.19;100.00;92525.00;5114510;28;20052;-79
2023/03/31 00:14:07;;;;;;;20.35;8.27;;;;;;;7.17;100.00;92522.66;5114604;28;20368;-78
2023/03/31 00:16:34;;;;;;;18.27;8.50;;;;;;;7.18;100.00;92524.22;5098531;28;20057;-78
2023/03/31 00:19:00;;;;;;;15.52;8.35;;;;;;;7.16;100.00;92518.50;5116232;27;20396;-78
2023/03/31 00:21:28;;;;;;;21.42;8.30;;;;;;;7.14;100.00;92515.38;5110230;28;20067;-79
2023/03/31 00:24:03;;;;;;;22.00;8.27;;;;;;;7.22;100.00;92524.47;5109471;28;20028;-79
2023/03/31 00:26:29;;;;;;;21.77;7.55;;;;;;;7.22;100.00;92514.81;5107642;28;20024;-79
2023/03/31 00:28:57;;;;;;;19.50;7.35;;;;;;;7.24;100.00;92511.97;5105776;28;20028;-79
2023/03/31 00:31:23;;;;;;;14.63;6.45;;;;;;;7.24;100.00;92510.13;5102746;28;20035;-78
2023/03/31 00:33:49;;;;;;;17.73;6.00;;;;;;;7.23;100.00;92507.81;5097839;28;20562;-79
2023/03/31 00:36:26;;;;;;;14.18;5.95;;;;;;;7.20;100.00;92498.69;5114621;28;20127;-77
2023/03/31 00:38:58;;;;;;;11.07;5.80;;;;;;;7.19;100.00;92491.16;5113875;28;20063;-78
2023/03/31 00:41:24;;;;;;;;;;;;;;;7.21;100.00;92489.84;5103505;28;20366;-78
2023/03/31 00:44:07;;;;;;;10.73;5.93;;;;;;;7.19;100.00;92486.72;5111197;28;20068;-79
2023/03/31 00:46:37;;;;;;;;;;;;;;;7.21;100.00;92479.44;5109023;28;20498;-79
2023/03/31 00:49:03;;;;;;;17.90;6.32;;;;;;;7.23;100.00;92482.56;5102528;28;19939;-79
2023/03/31 00:51:33;;;;;;;17.75;6.50;;;;;;;7.20;100.00;92477.09;5110721;28;20124;-79
2023/03/31 00:54:04;;;;;;;20.67;7.28;;;;;;;7.22;100.00;92478.38;5110922;28;20473;-79
2023/03/31 00:56:40;;;;;;;17.48;6.68;;;;;;;7.25;100.00;92474.47;5111932;28;20423;-77
2023/03/31 00:59:09;;;;;;;14.50;7.22;;;;;;;7.21;100.00;92466.41;5093973;28;20024;-77
2023/03/31 01:01:38;;;;;;;14.05;7.55;;;;;;;7.27;100.00;92477.56;5103775;28;20032;-79
2023/03/31 01:04:06;;;;;;;14.13;7.15;;;;;;;7.23;100.00;92481.78;5106421;28;20517;-79
2023/03/31 01:06:34;;;;;;;16.00;6.72;;;;;;;7.23;100.00;92481.78;5111013;28;20032;-78
2023/03/31 01:09:05;;;;;;;13.48;6.50;;;;;;;7.24;100.00;92472.91;5102639;28;20040;-79
2023/03/31 01:11:33;;;;;;;14.10;6.70;;;;;;;7.24;100.00;92468.47;5115317;28;20075;-79
2023/03/31 01:14:00;;;;;;;17.92;7.25;;;;;;;7.22;100.00;92465.34;5114671;28;20036;-79
2023/03/31 01:16:26;;;;;;;20.15;7.55;;;;;;;7.16;100.00;92453.41;5115378;28;20135;-79
2023/03/31 01:18:52;;;;;;;16.58;6.72;;;;;;;7.20;100.00;92461.47;5109030;28;20027;-79
2023/03/31 01:21:22;;;;;;;20.65;6.78;;;;;;;7.19;100.00;92455.47;5112186;28;20050;-79
2023/03/31 01:23:52;;;;;;;13.95;7.32;;;;;;;7.18;100.00;92455.75;5106478;28;20401;-79
2023/03/31 01:26:46;;;;;;;23.27;7.25;;;;;;;7.17;100.00;92446.38;5110353;28;20047;-78
2023/03/31 01:29:40;;;;;;;23.75;11.10;;;;;;;7.14;100.00;92444.28;5114119;28;20038;-78
2023/03/31 01:32:30;;;;;;;27.23;12.38;;;;;;;7.14;100.00;92437.28;5113641;28;20581;-78
2023/03/31 01:35:18;;;;;;;31.23;11.75;;;;;;;7.13;100.00;92433.09;5109572;28;20115;-78
2023/03/31 01:38:02;;;;;;;31.75;12.00;;;;;;;7.13;100.00;92435.72;5112407;28;20059;-78
2023/03/31 01:40:56;;;;;;;27.15;12.23;;;;;;;7.14;100.00;92428.66;5113720;28;20024;-79
2023/03/31 01:43:28;;;;;;;25.58;11.77;;;;;;;7.15;100.00;92425.81;5068362;28;20035;-79
2023/03/31 01:45:56;;;;;;;23.13;10.70;;;;;;;7.17;100.00;92425.56;5096197;28;20032;-79
2023/03/31 01:49:09;;;;;;;24.95;11.82;;;;;;;7.17;100.00;92431.53;5114382;28;20019;-80
2023/03/31 01:51:46;;;;;;;15.55;9.27;;;;;;;7.23;100.00;92420.06;5024871;28;20050;-77
2023/03/31 01:54:17;;;;;;;20.65;10.05;;;;;;;7.19;100.00;92408.63;5014350;28;20041;-78
2023/03/31 01:56:55;;;;;;;17.73;7.70;;;;;;;7.17;100.00;92404.72;5069003;28;20393;-78
2023/03/31 01:59:32;;;;;;;24.95;8.00;;;;;;;7.13;100.00;92414.88;5100270;28;20285;-78
2023/03/31 02:02:24;;;;;;;17.10;7.65;;;;;;;7.13;100.00;92414.88;5100980;28;20123;-78
2023/03/31 02:04:58;;;;;;;17.10;7.45;;;;;;;7.13;100.00;92403.69;5103260;28;20031;-79
2023/03/31 02:07:33;;;;;;;17.63;7.15;;;;;;;7.11;100.00;92411.00;5104422;28;20091;-78
2023/03/31 02:10:06;;;;;;;15.18;6.75;;;;;;;7.12;100.00;92415.16;5113085;28;20038;-78
2023/03/31 02:12:34;;;;;;;14.25;6.78;;;;;;;7.18;100.00;92404.47;5098298;28;20036;-78
2023/03/31 02:15:04;;;;;;;15.88;7.85;;;;;;;7.12;100.00;92392.50;5110892;28;20122;-78
2023/03/31 02:17:31;;;;;;;20.17;8.85;;;;;;;7.21;100.00;92403.94;5111988;28;20493;-79
2023/03/31 02:20:04;;;;;;;19.05;10.32;;;;;;;7.22;100.00;92389.09;5109617;28;20038;-79
2023/03/31 02:22:34;;;;;;;16.00;8.48;;;;;;;7.10;100.00;92376.38;5101028;28;20111;-78
2023/03/31 02:25:03;;;;;;;16.27;8.13;;;;;;;7.11;100.00;92371.94;5102975;28;20513;-79
2023/03/31 02:27:41;;;;;;;13.30;6.78;;;;;;;7.09;100.00;92377.41;5111806;28;20031;-79
2023/03/31 02:30:09;;;;;;;13.02;7.10;;;;;;;7.04;100.00;92364.44;5104155;28;20067;-79
2023/03/31 02:32:41;;;;;;;12.57;7.32;;;;;;;7.02;100.00;92371.72;5111340;28;20047;-79
2023/03/31 02:35:11;;;;;;;21.92;8.00;;;;;;;6.99;100.00;92388.66;5093900;28;20032;-80
2023/03/31 02:37:39;;;;;;;18.05;6.95;;;;;;;6.97;100.00;92380.31;5104578;28;20032;-78
2023/03/31 02:40:09;;;;;;;18.17;6.30;;;;;;;7.04;100.00;92375.59;5087162;28;20031;-80
2023/03/31 02:42:39;;;;;;;13.18;5.90;;;;;;;7.00;100.00;92376.41;5112702;28;20031;-79
2023/03/31 02:45:26;;;;;;;14.95;6.53;;;;;;;7.01;100.00;92386.56;5104713;28;20036;-79
2023/03/31 02:47:54;;;;;;;12.15;6.38;;;;;;;6.99;100.00;92380.06;5107546;28;20027;-79
2023/03/31 02:50:30;;;;;;;11.25;6.25;;;;;;;7.01;100.00;92381.34;5092310;28;20093;-79
2023/03/31 02:53:06;;;;;;;18.48;6.03;;;;;;;7.00;100.00;92373.81;5115496;28;20031;-80
2023/03/31 02:55:49;;;;;;;14.63;6.07;;;;;;;6.96;100.00;92370.97;5118279;28;20027;-78
2023/03/31 02:58:22;;;;;;;20.02;5.88;;;;;;;6.92;100.00;92364.75;5115268;28;20448;-79
2023/03/31 03:01:17;;;;;;;17.77;5.72;;;;;;;6.96;100.00;92359.75;5105169;28;20051;-79
2023/03/31 03:04:01;;;;;;;11.48;4.90;;;;;;;6.96;100.00;92360.56;5108738;28;20114;-79
2023/03/31 03:06:40;;;;;;;11.32;4.32;;;;;;;6.92;100.00;92382.94;5106639;28;20036;-79
2023/03/31 03:09:34;;;;;;;7.90;3.92;;;;;;;7.02;100.00;92376.94;5113502;28;20047;-78
2023/03/31 03:12:14;;;;;;;12.98;4.45;;;;;;;6.97;100.00;92384.75;5084765;28;20028;-78
2023/03/31 03:15:20;;;;;;;9.45;4.70;;;;;;;6.93;100.00;92383.72;5110701;28;20043;-78
2023/03/31 03:17:48;;;;;;;7.68;3.30;;;;;;;6.95;100.00;92376.44;5091236;28;20043;-78
2023/03/31 03:20:15;;;;;;;7.90;3.50;;;;;;;6.97;100.00;92369.16;5116833;27;20028;-77
2023/03/31 03:22:41;;;;;;;10.88;3.33;;;;;;;6.97;100.00;92364.72;5113500;28;20039;-78
2023/03/31 03:25:10;;;;;;;10.15;3.20;;;;;;;6.87;100.00;92365.53;5116983;28;20031;-78
2023/03/31 03:27:37;;;;;;;6.28;2.97;;;;;;;6.87;100.00;92368.13;5104717;28;20028;-78
2023/03/31 03:30:06;;;;;;;6.85;3.10;;;;;;;6.90;100.00;92366.06;5105803;28;20038;-78
2023/03/31 03:32:32;;;;;;;11.45;3.35;;;;;;;6.83;100.00;92374.91;5108009;28;20024;-78
2023/03/31 03:34:59;;;;;;;12.50;3.63;;;;;;;6.83;100.00;92384.53;5115130;28;20080;-77
2023/03/31 03:37:25;;;;;;;12.35;3.40;;;;;;;6.83;100.00;92385.31;5115703;28;20405;-78
2023/03/31 03:39:50;;;;;;;7.88;3.30;;;;;;;6.85;100.00;92385.84;5116763;28;20015;-78
2023/03/31 03:42:16;;;;;;;14.10;4.28;;;;;;;6.84;100.00;92384.25;5095451;28;20126;-78
2023/03/31 03:44:42;;;;;;;11.82;3.30;;;;;;;6.83;100.00;92379.34;5115825;28;20481;-78
2023/03/31 03:47:07;;;;;;;11.00;3.88;;;;;;;6.81;100.00;92361.38;5111777;28;20048;-78
2023/03/31 03:49:33;;;;;;;9.10;3.17;;;;;;;6.84;100.00;92366.03;5114994;28;20024;-78
2023/03/31 03:51:59;;;;;;;10.00;3.40;;;;;;;6.81;100.00;92361.38;5114651;28;20036;-78
2023/03/31 03:54:25;;;;;;;6.97;2.55;;;;;;;6.92;100.00;92356.16;5115735;28;20035;-79
2023/03/31 03:56:50;;;;;;;7.95;2.45;;;;;;;6.93;100.00;92344.69;5114777;28;20043;-78
2023/03/31 03:59:16;;;;;;;6.85;2.90;;;;;;;6.95;100.00;92355.63;5114284;28;20032;-78
2023/03/31 04:01:41;;;;;;;8.82;3.33;;;;;;;6.73;100.00;92350.75;5098844;28;20126;-77
2023/03/31 04:04:07;;;;;;;6.80;2.92;;;;;;;6.78;100.00;92353.34;5115869;28;20102;-79
2023/03/31 04:06:34;;;;;;;9.27;3.25;;;;;;;6.69;100.00;92360.91;5100465;28;20482;-78
2023/03/31 04:09:00;;;;;;;9.95;3.60;;;;;;;6.57;100.00;92348.19;5108779;28;20070;-78
2023/03/31 04:11:27;;;;;;;14.20;3.92;;;;;;;6.53;100.00;92343.78;5115496;28;20485;-78
2023/03/31 04:13:52;;;;;;;9.38;3.35;;;;;;;6.52;100.00;92345.59;5108457;28;20023;-78
2023/03/31 04:16:19;;;;;;;11.18;4.22;;;;;;;6.69;100.00;92347.91;5124143;27;20402;-77
2023/03/31 04:18:45;;;;;;;16.52;4.72;;;;;;;6.61;100.00;92346.63;5135702;27;20023;-79
2023/03/31 04:21:14;;;;;;;12.45;4.00;;;;;;;6.53;100.00;92346.38;5100620;27;20035;-78
2023/03/31 04:23:46;;;;;;;9.95;3.90;;;;;;;6.56;100.00;92348.47;5135552;27;20027;-77
2023/03/31 04:26:15;;;;;;;12.35;3.28;;;;;;;6.47;100.00;92333.38;5117124;27;20489;-78
2023/03/31 04:28:49;;;;;;;9.80;3.35;;;;;;;6.46;100.00;92325.84;5134248;27;20071;-78
2023/03/31 04:31:24;;;;;;;12.32;3.75;;;;;;;6.42;100.00;92323.00;5135007;27;20035;-78
2023/03/31 04:33:54;;;;;;;13.32;4.00;;;;;;;6.41;100.00;92326.63;5134234;27;20400;-78
2023/03/31 04:36:20;;;;;;;11.75;3.58;;;;;;;6.51;100.00;92319.84;5135388;27;20070;-81
2023/03/31 04:38:53;;;;;;;12.45;3.90;;;;;;;6.51;100.00;92319.84;5102910;27;20026;-81
2023/03/31 04:41:22;;;;;;;;;;;;;;;6.49;100.00;92311.56;5130932;27;20043;-81
2023/03/31 04:43:48;;;;;;;10.80;3.78;;;;;;;6.40;100.00;92286.09;5125572;27;20303;-80
2023/03/31 04:46:14;;;;;;;9.35;3.85;;;;;;;6.41;100.00;92289.47;5112276;27;20034;-82
2023/03/31 04:48:40;;;;;;;10.25;3.28;;;;;;;6.46;100.00;92292.84;5107631;28;20394;-81
2023/03/31 04:51:06;;;;;;;7.82;3.42;;;;;;;6.38;100.00;92290.00;5111463;27;20223;-80
2023/03/31 04:53:32;;;;;;;11.10;3.33;;;;;;;6.41;100.00;92284.25;5116552;27;20400;-80
2023/03/31 04:55:59;;;;;;;12.18;3.70;;;;;;;6.59;100.00;92283.66;5114273;27;20031;-81
2023/03/31 04:58:25;;;;;;;7.05;3.50;;;;;;;6.56;100.00;92284.22;5129208;27;20168;-80
2023/03/31 05:00:51;;;;;;;9.43;3.58;;;;;;;6.64;100.00;92285.47;5129916;27;20549;-81
2023/03/31 05:03:17;;;;;;;13.98;3.53;;;;;;;6.55;100.00;92289.66;5112153;27;20554;-82
2023/03/31 05:05:43;;;;;;;13.43;3.53;;;;;;;6.51;100.00;92286.03;5131131;27;20039;-80
2023/03/31 05:08:08;;;;;;;13.20;4.03;;;;;;;6.46;100.00;92285.03;5109050;27;20104;-81
2023/03/31 05:10:34;;;;;;;10.63;3.47;;;;;;;6.45;100.00;92290.50;5115061;27;20718;-80
2023/03/31 05:12:59;;;;;;;17.35;4.20;;;;;;;6.47;100.00;92283.22;5133713;27;20620;-82
2023/03/31 05:15:25;;;;;;;8.45;3.55;;;;;;;6.46;100.00;92286.84;5132689;27;20057;-80
2023/03/31 05:17:51;;;;;;;9.13;3.90;;;;;;;6.46;100.00;92286.84;5136484;27;20088;-81
2023/03/31 05:20:18;;;;;;;10.23;3.63;;;;;;;6.49;100.00;92277.75;5098666;27;20079;-81
2023/03/31 05:22:44;;;;;;;16.77;4.50;;;;;;;6.46;100.00;92266.84;5135682;27;20528;-82
2023/03/31 05:25:13;;;;;;;9.25;3.70;;;;;;;6.49;100.00;92269.94;5115611;27;20049;-81
2023/03/31 05:27:39;;;;;;;21.08;4.95;;;;;;;6.44;100.00;92268.91;5134395;27;20376;-82
2023/03/31 05:30:07;;;;;;;9.95;4.35;;;;;;;6.42;100.00;92255.41;5115371;27;20031;-80
2023/03/31 05:32:33;;;;;;;12.38;3.55;;;;;;;6.46;100.00;92243.44;5132936;27;20544;-81
2023/03/31 05:34:58;;;;;;;9.70;3.55;;;;;;;6.52;100.00;92230.41;5100312;28;20118;-80
2023/03/31 05:37:25;;;;;;;18.38;4.00;;;;;;;6.61;100.00;92236.59;5135187;27;20070;-79
2023/03/31 05:39:52;;;;;;;10.52;3.20;;;;;;;6.79;100.00;92251.59;5124181;28;20028;-81
2023/03/31 05:42:30;;;;;;;9.27;4.22;;;;;;;6.59;100.00;92262.09;5097119;28;20034;-81
2023/03/31 05:44:56;;;;;;;12.95;4.10;;;;;;;6.60;100.00;92259.25;5117336;28;20088;-81
2023/03/31 05:47:22;;;;;;;8.10;3.65;;;;;;;6.49;100.00;92254.34;5134742;28;20480;-81
2023/03/31 05:49:48;;;;;;;10.18;4.25;;;;;;;6.41;100.00;92247.84;5138189;28;20374;-82
2023/03/31 05:52:13;;;;;;;9.05;4.03;;;;;;;6.38;100.00;92249.16;5094131;28;20042;-81
2023/03/31 05:54:40;;;;;;;14.82;3.90;;;;;;;6.34;100.00;92248.13;5131775;28;20063;-81
2023/03/31 05:57:06;;;;;;;12.60;4.43;;;;;;;6.35;100.00;92256.72;5130845;28;20095;-82
2023/03/31 05:59:34;;;;;;;16.63;4.60;;;;;;;6.33;100.00;92262.19;5135784;28;20390;-82
2023/03/31 06:02:00;;;;;;;10.32;3.92;;;;;;;6.35;100.00;92259.31;5136580;28;20489;-82
2023/03/31 06:04:27;;;;;;;10.65;4.20;;;;;;;6.32;100.00;92247.63;5100932;28;20039;-82
2023/03/31 06:06:52;;;;;;;8.18;3.70;;;;;;;6.30;100.00;92248.94;5136992;28;20434;-83
2023/03/31 06:09:19;;;;;;;11.88;4.35;;;;;;;6.32;100.00;92241.66;5118098;28;20088;-81
2023/03/31 06:11:45;;;;;;;9.77;4.32;;;;;;;6.33;100.00;92241.41;5114995;28;20027;-83
2023/03/31 06:14:11;;;;;;;11.43;4.65;;;;;;;6.35;100.00;92247.13;5089632;28;20039;-82
2023/03/31 06:16:38;;;;;;;10.38;3.83;;;;;;;6.32;100.00;92236.47;5126159;28;20133;-82
2023/03/31 06:19:04;;;;;;;14.13;5.00;;;;;;;6.31;100.00;92247.91;5114995;28;20118;-83
2023/03/31 06:21:29;;;;;;;13.73;3.80;;;;;;;6.46;100.00;92251.22;5109006;28;20031;-82
2023/03/31 06:23:57;;;;;;;13.70;4.55;;;;;;;6.46;100.00;92251.22;5113471;28;20043;-82
2023/03/31 06:26:23;;;;;;;5.68;3.50;;;;;;;6.46;100.00;92246.03;5132032;27;20395;-82
2023/03/31 06:28:49;;;;;;;15.15;4.93;;;;;;;6.55;100.00;92235.84;5119308;27;20039;-82
2023/03/31 06:31:18;;;;;;;11.30;4.93;;;;;;;6.38;100.00;92238.00;5119848;27;20117;-83
2023/03/31 06:33:43;;;;;;;14.43;4.90;;;;;;;6.34;100.00;92248.13;5139447;27;20128;-82
2023/03/31 06:36:11;;;;;;;15.05;4.90;;;;;;;6.30;100.00;92235.94;5120483;27;20027;-84
2023/03/31 06:38:37;;;;;;;13.27;4.13;;;;;;;6.30;100.00;92241.91;5105473;28;20027;-84
2023/03/31 06:41:05;;;;;;;12.00;4.80;;;;;;;6.28;100.00;92249.19;5116795;28;20052;-83
2023/03/31 06:43:31;;;;;;;11.00;4.85;;;;;;;6.25;100.00;92226.34;5119442;27;20031;-84
2023/03/31 06:45:56;;;;;;;10.80;4.05;;;;;;;6.24;100.00;92240.38;5104931;27;20042;-84
2023/03/31 06:48:24;;;;;;;13.93;4.50;;;;;;;6.27;100.00;92228.69;5108167;27;20404;-84
2023/03/31 06:50:50;;;;;;;10.00;3.88;;;;;;;6.25;100.00;92224.50;5134641;27;20027;-85
2023/03/31 06:53:16;;;;;;;10.23;3.67;;;;;;;6.34;100.00;92222.16;5104149;27;20054;-85
2023/03/31 06:55:41;;;;;;;13.60;4.10;;;;;;;6.34;100.00;92224.75;5107040;27;20031;-84
2023/03/31 06:58:07;;;;;;;10.77;3.70;;;;;;;6.34;100.00;92214.34;5120138;28;20035;-84
2023/03/31 07:00:33;;;;;;;14.15;4.22;;;;;;;6.32;100.00;92208.63;5125104;27;20023;-85
2023/03/31 07:03:00;;;;;;;13.68;4.20;;;;;;;6.24;100.00;92201.41;5108384;27;20038;-83
2023/03/31 07:05:27;;;;;;;12.40;3.85;;;;;;;6.23;100.00;92198.00;5133675;27;20172;-83
2023/03/31 07:07:58;;;;;;;14.55;4.60;;;;;;;6.23;100.00;92197.22;5116012;28;20025;-83
2023/03/31 07:10:27;;;;;;;10.15;4.28;;;;;;;6.25;100.00;92190.72;5120276;27;20033;-83
2023/03/31 07:12:53;;;;;;;10.80;4.22;;;;;;;6.37;100.00;92194.84;5137704;27;20052;-82
2023/03/31 07:15:19;;;;;;;18.67;4.78;;;;;;;6.18;100.00;92185.03;5115144;28;20047;-84
2023/03/31 07:17:44;;;;;;;16.08;4.57;;;;;;;6.14;100.00;92191.03;5082456;28;20126;-83
2023/03/31 07:20:15;;;;;;;13.20;4.40;;;;;;;6.29;100.00;92188.38;5117063;27;20080;-82
2023/03/31 07:22:41;;;;;;;12.73;4.43;;;;;;;6.37;100.00;92198.22;5118476;28;20108;-81
2023/03/31 07:25:09;;;;;;;13.13;4.55;;;;;;;6.29;100.00;92190.97;5116462;28;20026;-82
2023/03/31 07:27:35;;;;;;;14.40;4.20;;;;;;;6.28;100.00;92192.00;5118797;28;20493;-81
2023/03/31 07:30:01;;;;;;;7.35;4.20;;;;;;;6.23;100.00;92181.63;5118074;28;20085;-82
2023/03/31 07:32:27;;;;;;;13.98;4.53;;;;;;;6.45;100.00;92182.06;5117704;28;20566;-82
2023/03/31 07:34:52;;;;;;;12.60;4.47;;;;;;;6.52;100.00;92188.78;5117010;28;20027;-82
2023/03/31 07:37:18;;;;;;;14.07;4.38;;;;;;;6.40;100.00;92189.88;5082860;28;20036;-84
2023/03/31 07:39:43;;;;;;;12.18;5.70;;;;;;;6.39;100.00;92179.75;5117959;28;20144;-84
2023/03/31 07:42:09;;;;;;;12.43;4.78;;;;;;;6.26;100.00;92173.31;5117939;28;20114;-83
2023/03/31 07:44:36;;;;;;;14.27;4.65;;;;;;;6.25;100.00;92172.53;5118144;28;20023;-82
2023/03/31 07:47:03;;;;;;;15.05;4.97;;;;;;;6.22;100.00;92160.06;5116836;28;20039;-83
2023/03/31 07:49:30;;;;;;;14.70;4.68;;;;;;;6.31;100.00;92173.28;5117740;28;20024;-83
2023/03/31 07:51:55;;;;;;;12.57;4.43;;;;;;;6.46;100.00;92173.22;5116619;28;20050;-84
2023/03/31 07:54:21;;;;;;;13.10;4.03;;;;;;;6.42;100.00;92163.63;5116766;28;20106;-84
2023/03/31 07:56:47;;;;;;;13.13;3.90;;;;;;;6.52;100.00;92168.00;5115403;28;20532;-83
2023/03/31 07:59:13;;;;;;;8.50;4.05;;;;;;;6.35;100.00;92156.13;5117549;28;20024;-83
2023/03/31 08:01:39;;;;;;;12.43;3.75;;;;;;;6.40;100.00;92153.50;5118160;28;20045;-84
2023/03/31 08:04:05;;;;;;;12.45;4.47;;;;;;;6.32;100.00;92151.44;5116765;28;20031;-84
2023/03/31 08:06:30;;;;;;;16.23;4.97;;;;;;;6.23;100.00;92142.66;5117515;28;20035;-83
2023/03/31 08:08:56;;;;;;;16.60;5.57;;;;;;;6.12;100.00;92135.94;5116852;28;20063;-83
2023/03/31 08:11:23;;;;;;;15.13;5.00;;;;;;;6.14;100.00;92144.25;5116757;28;20119;-84
2023/03/31 08:13:49;;;;;;;12.30;4.93;;;;;;;6.18;100.00;92155.66;5099315;28;20020;-83
2023/03/31 08:16:15;;;;;;;10.55;5.10;;;;;;;6.24;100.00;92170.22;5129543;27;20075;-83
2023/03/31 08:18:40;;;;;;;122.65;6.70;;;;;;;6.20;100.00;92166.59;5136928;27;20040;-84
2023/03/31 08:21:08;;;;;;;147.25;7.30;;;;;;;6.27;100.00;92166.28;5136049;27;20043;-84
2023/03/31 08:23:34;;;;;;;17.10;5.60;;;;;;;6.16;100.00;92171.53;5119298;27;20023;-84
2023/03/31 08:26:18;;;;;;;14.50;4.88;;;;;;;6.12;100.00;92165.28;5118109;27;20043;-84
2023/03/31 08:28:45;;;;;;;12.60;5.25;;;;;;;6.23;100.00;92158.25;5117670;27;20027;-84
2023/03/31 08:31:11;;;;;;;17.13;5.03;;;;;;;6.14;100.00;92154.66;5117690;27;20548;-84
2023/03/31 08:33:37;;;;;;;8.35;4.03;;;;;;;6.21;100.00;92137.72;5101206;27;20062;-84
2023/03/31 08:36:05;;;;;;;7.03;3.67;;;;;;;6.34;100.00;92133.75;5136755;27;20035;-83
2023/03/31 08:38:31;;;;;;;9.30;4.20;;;;;;;6.35;100.00;92148.31;5136337;27;20027;-83
2023/03/31 08:41:01;;;;;;;10.95;4.40;;;;;;;6.26;100.00;92152.53;5136628;27;20047;-83
2023/03/31 08:43:39;;;;;;;12.15;4.13;;;;;;;6.20;100.00;92158.78;5136667;27;20051;-83
2023/03/31 08:46:10;;;;;;;11.30;4.82;;;;;;;6.20;100.00;92163.97;5136276;27;20023;-83
2023/03/31 08:48:47;;;;;;;9.73;4.38;;;;;;;6.14;100.00;92154.66;5135825;27;20110;-83
2023/03/31 08:51:36;;;;;;;12.40;4.70;;;;;;;6.13;100.00;92158.31;5136096;27;20110;-83
2023/03/31 08:54:11;;;;;;;12.43;4.57;;;;;;;6.13;100.00;92156.47;5128220;27;20485;-84
2023/03/31 08:56:43;;;;;;;15.23;4.90;;;;;;;6.09;100.00;92152.06;5115495;28;20038;-83
2023/03/31 08:59:28;;;;;;;10.05;4.75;;;;;;;6.04;100.00;92148.44;5106065;27;20027;-84
2023/03/31 09:02:03;;;;;;;11.50;4.40;;;;;;;6.05;100.00;92151.81;5118370;27;20031;-84
2023/03/31 09:04:32;;;;;;;14.40;4.95;;;;;;;5.93;100.00;92144.31;5134084;27;20023;-84
2023/03/31 09:07:19;;;;;;;11.93;4.45;;;;;;;5.99;100.00;92145.06;5122810;27;20027;-84
2023/03/31 09:09:57;;;;;;;12.98;4.38;;;;;;;6.02;100.00;92147.94;5099363;27;20044;-84
2023/03/31 09:12:34;;;;;;;12.35;3.85;;;;;;;6.03;100.00;92133.91;5137329;27;20392;-85
2023/03/31 09:15:04;;;;;;;8.25;3.88;;;;;;;6.18;100.00;92124.47;5132832;27;20043;-85
2023/03/31 09:17:37;;;;;;;11.73;4.78;;;;;;;6.12;100.00;92131.50;5107648;28;20081;-84
2023/03/31 09:20:19;;;;;;;11.35;3.90;;;;;;;6.06;100.00;92132.59;5097470;28;20392;-83
2023/03/31 09:22:55;;;;;;;12.93;4.20;;;;;;;6.00;100.00;92129.22;5132994;27;20024;-84
2023/03/31 09:25:30;;;;;;;9.90;3.75;;;;;;;5.99;100.00;92119.91;5135426;27;20042;-84
2023/03/31 09:27:58;;;;;;;14.55;3.80;;;;;;;5.90;100.00;92116.25;5135532;27;20058;-83
2023/03/31 09:30:28;;;;;;;10.70;3.75;;;;;;;5.87;100.00;92105.63;5114028;28;20012;-82
2023/03/31 09:33:13;;;;;;;11.05;3.95;;;;;;;5.91;100.00;92109.25;5114660;28;20032;-85
2023/03/31 09:35:40;;;;;;;12.00;4.18;;;;;;;5.94;100.00;92130.28;5114864;28;20100;-84
2023/03/31 09:38:05;;;;;;;12.25;4.43;;;;;;;5.89;100.00;92132.09;5119432;28;20026;-83
2023/03/31 09:40:31;;;;;;;12.20;4.38;;;;;;;5.85;100.00;92131.84;5116792;28;20043;-84
2023/03/31 09:43:07;;;;;;;11.48;4.50;;;;;;;5.80;100.00;92109.25;5100151;28;20030;-83
2023/03/31 09:45:33;;;;;;;9.25;3.63;;;;;;;5.84;100.00;92119.91;5117476;28;20034;-83
2023/03/31 09:48:15;;;;;;;12.65;3.70;;;;;;;5.90;100.00;92113.66;5117110;28;20062;-83
2023/03/31 09:50:48;;;;;;;9.70;4.15;;;;;;;5.84;100.00;92112.13;5134991;28;20023;-84
2023/03/31 09:53:27;;;;;;;14.18;3.60;;;;;;;6.07;100.00;92095.16;5116891;28;20043;-82
2023/03/31 09:55:59;;;;;;;10.15;3.67;;;;;;;6.02;100.00;92082.97;5134950;28;20118;-84
2023/03/31 09:58:25;;;;;;;8.88;3.80;;;;;;;6.03;100.00;92081.94;5135155;28;20457;-83
2023/03/31 10:01:01;;;;;;;13.00;3.50;;;;;;;5.92;100.00;92080.41;5136216;27;20114;-83
2023/03/31 10:03:28;;;;;;;14.18;4.57;;;;;;;5.84;100.00;92073.94;5140386;27;20034;-82
2023/03/31 10:05:57;;;;;;;11.27;3.90;;;;;;;5.84;100.00;92078.34;5140030;27;20034;-83
2023/03/31 10:08:38;;;;;;;14.77;3.95;;;;;;;5.84;100.00;92063.53;5120422;27;20035;-83
2023/03/31 10:11:05;;;;;;;8.25;3.70;;;;;;;5.90;100.00;92064.31;5134787;27;20054;-83
2023/03/31 10:13:51;;;;;;;8.80;3.72;;;;;;;5.81;100.00;92063.31;5139403;27;20484;-82
2023/03/31 10:16:29;;;;;;;14.95;4.15;;;;;;;5.80;100.00;92056.53;5121504;27;20190;-82
2023/03/31 10:19:10;;;;;;;8.10;3.42;;;;;;;5.82;100.00;92059.66;5121621;27;20042;-82
2023/03/31 10:21:37;;;;;;;12.32;4.28;;;;;;;5.80;100.00;92051.34;5139851;27;20058;-82
2023/03/31 10:24:08;;;;;;;13.13;3.95;;;;;;;5.94;100.00;92054.94;5121561;27;20035;-82
2023/03/31 10:26:33;;;;;;;13.32;4.35;;;;;;;5.95;100.00;92043.53;5121999;27;20425;-81
2023/03/31 10:28:59;;;;;;;13.27;3.88;;;;;;;5.91;100.00;92032.06;5138738;27;20070;-83
2023/03/31 10:31:33;;;;;;;9.27;3.25;;;;;;;6.21;100.00;92040.75;5071593;28;20047;-84
2023/03/31 10:34:05;;;;;;;10.07;3.55;;;;;;;6.12;100.00;92034.59;5117841;28;20501;-84
2023/03/31 10:36:31;;;;;;;11.93;3.70;;;;;;;6.01;100.00;92032.06;5099382;28;20393;-84
2023/03/31 10:38:57;;;;;;;11.95;4.13;;;;;;;6.10;100.00;92034.06;5117495;28;20019;-81
2023/03/31 10:41:26;;;;;;;12.50;4.35;;;;;;;6.16;100.00;92027.81;5117990;28;20043;-83
2023/03/31 10:43:54;;;;;;;17.30;4.80;;;;;;;6.20;100.00;92028.84;5118425;28;20024;-83
2023/03/31 10:46:37;;;;;;;11.45;3.85;;;;;;;6.12;100.00;92016.41;5124224;27;20046;-83
2023/03/31 10:49:26;;;;;;;16.95;4.55;;;;;;;6.14;100.00;92014.31;5138910;27;20031;-83
2023/03/31 10:51:54;;;;;;;11.13;4.22;;;;;;;6.15;100.00;92000.28;5119896;27;20035;-81
2023/03/31 10:54:20;;;;;;;13.73;4.18;;;;;;;6.23;100.00;91989.28;5120274;27;20023;-83
2023/03/31 10:56:50;;;;;;;8.65;3.95;;;;;;;6.18;100.00;91978.94;5120559;27;20126;-83
2023/03/31 10:59:31;;;;;;;9.10;4.38;;;;;;;6.19;100.00;91964.88;5138361;27;20057;-82
2023/03/31 11:02:15;;;;;;;16.02;4.40;;;;;;;6.26;100.00;91965.38;5107175;28;20107;-83
2023/03/31 11:04:55;;;;;;;11.13;4.03;;;;;;;6.24;100.00;91959.66;5117192;27;20046;-83
2023/03/31 11:07:46;;;;;;;9.70;4.35;;;;;;;6.27;100.00;91960.94;5127795;27;20576;-84
2023/03/31 11:10:22;;;;;;;19.27;4.82;;;;;;;6.35;100.00;91957.75;5137075;27;20090;-83
2023/03/31 11:12:55;;;;;;;15.48;4.38;;;;;;;6.33;100.00;91942.44;5136572;27;20103;-83
2023/03/31 11:15:54;;;;;;;10.77;4.55;;;;;;;6.33;100.00;91936.47;5117438;27;20046;-83
2023/03/31 11:18:32;;;;;;;9.90;4.88;;;;;;;6.34;100.00;91941.38;5135386;27;20043;-84
2023/03/31 11:21:21;;;;;;;14.45;4.47;;;;;;;6.36;100.00;91928.13;5107702;27;20097;-84
2023/03/31 11:23:53;;;;;;;10.30;5.38;;;;;;;6.34;100.00;91914.63;5117883;27;20092;-83
2023/03/31 11:26:37;;;;;;;7.15;4.07;;;;;;;6.33;100.00;91908.66;5118281;27;20046;-83
2023/03/31 11:29:15;;;;;;;14.43;5.07;;;;;;;6.33;100.00;91911.25;5132750;27;20438;-84
2023/03/31 11:32:08;;;;;;;10.15;4.60;;;;;;;6.31;100.00;91921.13;5134838;27;20118;-84
2023/03/31 11:34:59;;;;;;;12.75;4.50;;;;;;;6.33;100.00;91919.03;5134323;27;20034;-82
2023/03/31 11:37:44;;;;;;;8.60;4.28;;;;;;;6.38;100.00;91910.41;5137177;27;20646;-82
2023/03/31 11:40:16;;;;;;;9.60;4.55;;;;;;;6.39;100.00;91904.94;5116502;27;20051;-83
2023/03/31 11:43:01;;;;;;;11.57;4.95;;;;;;;6.38;100.00;91907.81;5108279;27;20028;-83
2023/03/31 11:45:35;;;;;;;13.50;4.47;;;;;;;6.41;100.00;91913.22;5095154;27;20774;-81